createdAt,value
2016-09-27T03:00:28.972Z,21.9
2016-09-27T03:00:54.545Z,22.04
2016-09-27T03:01:47.522Z,22.02
2016-09-27T03:02:13.100Z,22.01
2016-09-27T03:02:38.702Z,22.02
2016-09-27T03:03:04.269Z,22.02
2016-09-27T03:03:29.814Z,22.01
2016-09-27T03:03:55.496Z,22.02
2016-09-27T03:04:21.075Z,22.02
2016-09-27T03:04:46.626Z,22.02
2016-09-27T03:05:12.193Z,21.92
2016-09-27T03:05:37.854Z,22.06
2016-09-27T03:06:03.429Z,21.98
2016-09-27T03:06:28.985Z,21.98
2016-09-27T03:06:54.577Z,21.94
2016-09-27T03:07:20.120Z,22.07
2016-09-27T03:07:45.686Z,21.97
2016-09-27T03:08:11.275Z,21.91
2016-09-27T03:08:36.832Z,21.94
2016-09-27T03:09:02.395Z,22.01
2016-09-27T03:09:50.279Z,22.01
2016-09-27T03:10:15.876Z,22.06
2016-09-27T03:10:41.438Z,21.98
2016-09-27T03:11:06.997Z,21.91
2016-09-27T03:11:32.675Z,21.91
2016-09-27T03:11:58.312Z,22.02
2016-09-27T03:12:23.871Z,21.97
2016-09-27T03:12:49.467Z,21.98
2016-09-27T03:13:57.972Z,21.91
2016-09-27T03:14:23.593Z,21.92
2016-09-27T03:14:49.155Z,21.9
2016-09-27T03:15:14.725Z,21.97
2016-09-27T03:15:40.293Z,21.95
2016-09-27T03:16:05.831Z,21.95
2016-09-27T03:16:31.378Z,21.94
2016-09-27T03:16:56.946Z,21.95
2016-09-27T03:17:22.515Z,21.98
2016-09-27T03:17:48.086Z,21.98
2016-09-27T03:18:13.658Z,21.98
2016-09-27T03:18:39.221Z,21.97
2016-09-27T03:19:04.787Z,22.01
2016-09-27T03:19:30.426Z,22.01
2016-09-27T03:19:55.999Z,21.97
2016-09-27T03:20:21.555Z,22.02
2016-09-27T03:20:47.123Z,21.91
2016-09-27T03:21:12.668Z,21.99
2016-09-27T03:21:38.223Z,21.97
2016-09-27T03:22:03.790Z,21.91
2016-09-27T03:22:29.348Z,21.97
2016-09-27T03:22:55.081Z,21.95
2016-09-27T03:23:20.647Z,21.98
2016-09-27T03:23:46.202Z,22.01
2016-09-27T03:24:11.865Z,21.99
2016-09-27T03:24:37.417Z,21.98
2016-09-27T03:25:02.976Z,21.92
2016-09-27T03:25:28.548Z,21.92
2016-09-27T03:25:54.122Z,22.01
2016-09-27T03:26:19.686Z,22.01
2016-09-27T03:26:45.253Z,22.02
2016-09-27T03:27:10.867Z,21.97
2016-09-27T03:27:36.429Z,21.98
2016-09-27T03:28:01.982Z,21.97
2016-09-27T03:28:27.538Z,21.94
2016-09-27T03:28:53.126Z,21.95
2016-09-27T03:29:18.699Z,21.91
2016-09-27T03:29:44.276Z,21.98
2016-09-27T03:30:52.597Z,21.94
2016-09-27T03:31:18.180Z,21.98
2016-09-27T03:31:43.728Z,21.95
2016-09-27T03:32:09.291Z,21.98
2016-09-27T03:32:34.854Z,22.02
2016-09-27T03:33:00.549Z,22.01
2016-09-27T03:33:26.151Z,22.02
2016-09-27T03:33:51.723Z,21.98
2016-09-27T03:34:17.312Z,21.98
2016-09-27T03:34:42.859Z,21.95
2016-09-27T03:35:08.415Z,21.97
2016-09-27T03:35:33.997Z,21.98
2016-09-27T03:35:59.557Z,21.91
2016-09-27T03:36:25.150Z,21.94
2016-09-27T03:36:50.785Z,21.97
2016-09-27T03:37:16.344Z,21.94
2016-09-27T03:37:41.909Z,21.95
2016-09-27T03:38:07.459Z,21.94
2016-09-27T03:38:33.016Z,21.9
2016-09-27T03:38:58.569Z,21.94
2016-09-27T03:39:24.123Z,21.91
2016-09-27T03:39:49.694Z,21.82
2016-09-27T03:40:15.284Z,21.91
2016-09-27T03:41:23.645Z,21.85
2016-09-27T03:41:49.200Z,21.9
2016-09-27T03:42:14.759Z,21.81
2016-09-27T03:42:40.320Z,21.85
2016-09-27T03:43:05.912Z,21.94
2016-09-27T03:43:31.469Z,21.88
2016-09-27T03:43:57.050Z,21.91
2016-09-27T03:44:22.625Z,21.85
2016-09-27T03:44:48.191Z,21.94
2016-09-27T03:45:13.785Z,21.91
2016-09-27T03:45:39.352Z,21.91
2016-09-27T03:46:04.949Z,21.9
2016-09-27T03:46:30.528Z,21.81
2016-09-27T03:46:56.079Z,21.91
2016-09-27T03:47:21.647Z,21.82
2016-09-27T03:47:47.300Z,21.9
2016-09-27T03:48:12.945Z,21.88
2016-09-27T03:48:38.524Z,21.82
2016-09-27T03:49:04.084Z,21.82
2016-09-27T03:49:29.646Z,21.79
2016-09-27T03:49:55.215Z,21.79
2016-09-27T03:50:20.782Z,21.85
2016-09-27T03:50:46.329Z,21.81
2016-09-27T03:51:11.902Z,21.85
2016-09-27T03:51:37.538Z,21.91
2016-09-27T03:52:03.090Z,21.82
2016-09-27T03:52:28.650Z,21.83
2016-09-27T03:52:54.287Z,21.82
2016-09-27T03:53:19.871Z,21.82
2016-09-27T03:53:45.424Z,21.81
2016-09-27T03:54:10.971Z,21.83
2016-09-27T03:54:36.538Z,21.81
2016-09-27T03:55:02.103Z,21.88
2016-09-27T03:55:27.680Z,21.78
2016-09-27T03:55:53.227Z,21.82
2016-09-27T03:56:18.802Z,21.82
2016-09-27T03:56:44.350Z,21.9
2016-09-27T03:57:09.920Z,21.83
2016-09-27T03:57:35.477Z,21.82
2016-09-27T03:58:01.051Z,21.83
2016-09-27T03:58:26.610Z,21.81
2016-09-27T03:58:52.163Z,21.81
2016-09-27T03:59:17.730Z,21.76
2016-09-27T03:59:43.337Z,21.82
2016-09-27T04:00:08.902Z,21.83
2016-09-27T04:00:34.481Z,21.91
2016-09-27T04:01:00.034Z,21.82
2016-09-27T04:01:25.601Z,21.82
2016-09-27T04:01:51.187Z,21.76
2016-09-27T04:02:16.734Z,21.83
2016-09-27T04:02:42.349Z,21.76
2016-09-27T04:03:08.006Z,21.82
2016-09-27T04:03:33.572Z,21.82
2016-09-27T04:03:59.129Z,21.79
2016-09-27T04:05:07.612Z,21.82
2016-09-27T04:05:33.267Z,21.82
2016-09-27T04:05:58.820Z,21.83
2016-09-27T04:06:24.384Z,21.79
2016-09-27T04:06:49.949Z,21.82
2016-09-27T04:07:15.520Z,21.81
2016-09-27T04:07:41.092Z,21.85
2016-09-27T04:08:06.651Z,21.81
2016-09-27T04:08:32.196Z,21.81
2016-09-27T04:08:57.758Z,21.74
2016-09-27T04:09:23.469Z,21.83
2016-09-27T04:09:49.066Z,21.76
2016-09-27T04:10:14.612Z,21.69
2016-09-27T04:10:40.181Z,21.71
2016-09-27T04:11:05.771Z,21.75
2016-09-27T04:11:31.329Z,21.71
2016-09-27T04:11:56.912Z,21.67
2016-09-27T04:12:22.473Z,21.74
2016-09-27T04:12:48.010Z,21.67
2016-09-27T04:13:13.572Z,21.74
2016-09-27T04:13:39.135Z,21.72
2016-09-27T04:14:04.689Z,21.71
2016-09-27T04:14:30.260Z,21.74
2016-09-27T04:14:56.008Z,21.72
2016-09-27T04:15:21.551Z,21.71
2016-09-27T04:15:47.107Z,21.67
2016-09-27T04:16:12.660Z,21.78
2016-09-27T04:16:38.321Z,21.76
2016-09-27T04:17:03.882Z,21.72
2016-09-27T04:17:29.432Z,21.67
2016-09-27T04:17:55.005Z,21.67
2016-09-27T04:18:53.701Z,21.64
2016-09-27T04:19:19.101Z,21.71
2016-09-27T04:19:44.660Z,21.66
2016-09-27T04:20:10.220Z,21.67
2016-09-27T04:20:35.774Z,21.69
2016-09-27T04:21:01.339Z,21.64
2016-09-27T04:21:26.992Z,21.78
2016-09-27T04:21:52.544Z,21.6
2016-09-27T04:22:18.109Z,21.6
2016-09-27T04:22:43.669Z,21.67
2016-09-27T04:23:09.226Z,21.67
2016-09-27T04:23:34.785Z,21.66
2016-09-27T04:24:00.337Z,21.67
2016-09-27T04:24:25.899Z,21.69
2016-09-27T04:24:51.440Z,21.64
2016-09-27T04:25:16.956Z,21.66
2016-09-27T04:25:42.510Z,21.75
2016-09-27T04:26:08.073Z,21.63
2016-09-27T04:26:33.586Z,21.71
2016-09-27T04:26:59.139Z,21.67
2016-09-27T04:27:24.705Z,21.74
2016-09-27T04:27:50.278Z,21.66
2016-09-27T04:28:15.852Z,21.66
2016-09-27T04:28:41.418Z,21.71
2016-09-27T04:29:06.951Z,21.64
2016-09-27T04:29:32.513Z,21.67
2016-09-27T04:29:58.037Z,21.64
2016-09-27T04:30:23.564Z,21.69
2016-09-27T04:30:49.189Z,21.69
2016-09-27T04:31:14.729Z,21.64
2016-09-27T04:31:40.265Z,21.67
2016-09-27T04:32:06.072Z,21.67
2016-09-27T04:32:31.632Z,21.64
2016-09-27T04:32:57.223Z,21.72
2016-09-27T04:33:22.762Z,21.64
2016-09-27T04:33:48.299Z,21.64
2016-09-27T04:34:13.846Z,21.66
2016-09-27T04:34:39.390Z,21.69
2016-09-27T04:35:04.998Z,21.72
2016-09-27T04:35:30.548Z,21.72
2016-09-27T04:35:56.097Z,21.72
2016-09-27T04:36:21.642Z,21.72
2016-09-27T04:36:47.183Z,21.64
2016-09-27T04:37:12.729Z,21.67
2016-09-27T04:37:38.287Z,21.69
2016-09-27T04:38:03.924Z,21.71
2016-09-27T04:38:29.469Z,21.61
2016-09-27T04:38:55.131Z,21.63
2016-09-27T04:39:20.674Z,21.69
2016-09-27T04:39:46.214Z,21.69
2016-09-27T04:40:11.772Z,21.72
2016-09-27T04:40:37.338Z,21.66
2016-09-27T04:41:02.896Z,21.6
2016-09-27T04:41:28.522Z,21.59
2016-09-27T04:41:54.092Z,21.59
2016-09-27T04:42:19.649Z,21.6
2016-09-27T04:42:45.317Z,21.56
2016-09-27T04:43:10.947Z,21.56
2016-09-27T04:43:36.515Z,21.59
2016-09-27T04:44:02.081Z,21.6
2016-09-27T04:44:27.795Z,21.57
2016-09-27T04:44:53.353Z,21.59
2016-09-27T04:45:18.904Z,21.59
2016-09-27T04:45:44.466Z,21.56
2016-09-27T04:46:10.028Z,21.57
2016-09-27T04:46:35.573Z,21.56
2016-09-27T04:47:01.170Z,21.63
2016-09-27T04:47:26.712Z,21.54
2016-09-27T04:47:52.274Z,21.53
2016-09-27T04:48:18.000Z,21.57
2016-09-27T04:48:43.594Z,21.61
2016-09-27T04:49:09.176Z,21.59
2016-09-27T04:49:34.740Z,21.61
2016-09-27T04:50:00.321Z,21.61
2016-09-27T04:50:25.896Z,21.64
2016-09-27T04:50:51.429Z,21.56
2016-09-27T04:51:17.110Z,21.59
2016-09-27T04:51:42.674Z,21.56
2016-09-27T04:52:08.336Z,21.56
2016-09-27T04:52:33.902Z,21.56
2016-09-27T04:52:59.510Z,21.48
2016-09-27T04:53:25.112Z,21.39
2016-09-27T04:53:50.706Z,21.42
2016-09-27T04:54:16.264Z,21.44
2016-09-27T04:54:41.826Z,21.39
2016-09-27T04:55:07.428Z,21.35
2016-09-27T04:55:32.982Z,21.45
2016-09-27T04:55:58.550Z,21.35
2016-09-27T04:56:51.576Z,21.38
2016-09-27T04:57:49.646Z,21.32
2016-09-27T04:58:15.263Z,21.26
2016-09-27T04:58:40.860Z,21.3
2016-09-27T04:59:06.416Z,21.29
2016-09-27T04:59:31.978Z,21.26
2016-09-27T04:59:57.534Z,21.35
2016-09-27T05:00:23.154Z,21.27
2016-09-27T05:00:48.723Z,21.23
2016-09-27T05:01:14.282Z,21.24
2016-09-27T05:01:39.843Z,21.21
2016-09-27T05:02:05.400Z,21.24
2016-09-27T05:02:30.987Z,21.17
2016-09-27T05:02:56.523Z,21.3
2016-09-27T05:03:49.541Z,21.16
2016-09-27T05:04:15.138Z,21.17
2016-09-27T05:04:40.731Z,21.21
2016-09-27T05:05:06.334Z,21.16
2016-09-27T05:05:54.158Z,21.14
2016-09-27T05:06:19.708Z,21.09
2016-09-27T05:06:45.252Z,21.06
2016-09-27T05:07:10.903Z,21.05
2016-09-27T05:07:36.452Z,21.08
2016-09-27T05:08:02.055Z,21.11
2016-09-27T05:08:27.712Z,21.16
2016-09-27T05:08:53.266Z,21.16
2016-09-27T05:09:18.825Z,21.09
2016-09-27T05:09:44.386Z,21.13
2016-09-27T05:10:09.947Z,21.11
2016-09-27T05:10:35.536Z,21.02
2016-09-27T05:11:01.109Z,21.06
2016-09-27T05:11:26.665Z,21.02
2016-09-27T05:11:52.270Z,21.09
2016-09-27T05:12:17.916Z,21.05
2016-09-27T05:12:43.464Z,21.02
2016-09-27T05:13:09.020Z,21.01
2016-09-27T05:13:34.577Z,20.99
2016-09-27T05:14:00.155Z,21.01
2016-09-27T05:14:25.712Z,21.01
2016-09-27T05:14:51.270Z,21.01
2016-09-27T05:15:16.837Z,21.02
2016-09-27T05:15:42.421Z,20.96
2016-09-27T05:16:08.111Z,20.91
2016-09-27T05:16:34.218Z,20.89
2016-09-27T05:17:02.671Z,20.91
2016-09-27T05:17:28.225Z,20.91
2016-09-27T05:17:53.933Z,20.91
2016-09-27T05:18:19.487Z,20.93
2016-09-27T05:18:45.047Z,20.87
2016-09-27T05:19:10.680Z,20.89
2016-09-27T05:19:36.255Z,20.9
2016-09-27T05:20:01.822Z,20.81
2016-09-27T05:20:27.478Z,20.95
2016-09-27T05:20:53.101Z,20.87
2016-09-27T05:21:18.660Z,20.89
2016-09-27T05:21:44.231Z,20.83
2016-09-27T05:22:09.798Z,20.89
2016-09-27T05:22:35.352Z,20.87
2016-09-27T05:23:00.890Z,20.91
2016-09-27T05:23:26.449Z,20.86
2016-09-27T05:23:52.009Z,20.89
2016-09-27T05:24:17.695Z,20.91
2016-09-27T05:24:43.288Z,20.84
2016-09-27T05:25:08.899Z,20.86
2016-09-27T05:25:34.473Z,20.91
2016-09-27T05:26:00.075Z,20.91
2016-09-27T05:26:25.677Z,20.86
2016-09-27T05:26:51.274Z,20.84
2016-09-27T05:27:16.991Z,20.81
2016-09-27T05:27:42.742Z,20.86
2016-09-27T05:28:08.382Z,20.87
2016-09-27T05:28:34.469Z,20.9
2016-09-27T05:29:00.026Z,20.9
2016-09-27T05:29:25.585Z,20.89
2016-09-27T05:29:51.153Z,20.9
2016-09-27T05:30:16.716Z,20.87
2016-09-27T05:30:42.278Z,20.89
2016-09-27T05:31:07.847Z,20.9
2016-09-27T05:31:33.410Z,20.84
2016-09-27T05:31:58.974Z,20.87
2016-09-27T05:32:24.526Z,20.87
2016-09-27T05:33:17.679Z,20.84
2016-09-27T05:33:43.326Z,20.87
2016-09-27T05:34:08.891Z,20.89
2016-09-27T05:34:34.470Z,20.8
2016-09-27T05:35:00.028Z,20.89
2016-09-27T05:35:25.564Z,20.84
2016-09-27T05:35:51.133Z,20.93
2016-09-27T05:36:16.707Z,20.81
2016-09-27T05:36:42.262Z,20.8
2016-09-27T05:37:07.858Z,20.77
2016-09-27T05:37:33.393Z,20.77
2016-09-27T05:37:58.945Z,20.8
2016-09-27T05:38:24.506Z,20.81
2016-09-27T05:38:50.118Z,20.77
2016-09-27T05:39:15.648Z,20.84
2016-09-27T05:39:41.221Z,20.83
2016-09-27T05:40:06.761Z,20.77
2016-09-27T05:40:32.302Z,20.77
2016-09-27T05:40:57.894Z,20.8
2016-09-27T05:41:23.461Z,20.79
2016-09-27T05:41:48.999Z,20.77
2016-09-27T05:42:14.637Z,20.81
2016-09-27T05:42:40.199Z,20.81
2016-09-27T05:46:00.759Z,18.19
2016-09-27T05:46:34.669Z,17.53
2016-09-27T05:47:07.835Z,17.04
2016-09-27T05:47:38.841Z,16.62
2016-09-27T05:48:04.400Z,16.15
2016-09-27T05:48:30.206Z,15.93
2016-09-27T05:48:55.508Z,15.64
2016-09-27T05:49:21.056Z,15.41
2016-09-27T05:49:46.746Z,15.02
2016-09-27T05:50:12.307Z,14.9
2016-09-27T05:50:37.853Z,14.61
2016-09-27T05:51:03.461Z,14.38
2016-09-27T05:51:29.015Z,14.21
2016-09-27T05:51:54.591Z,13.99
2016-09-27T05:52:20.158Z,13.87
2016-09-27T05:52:45.724Z,13.65
2016-09-27T05:53:11.310Z,13.47
2016-09-27T05:53:36.859Z,13.3
2016-09-27T05:54:02.425Z,13.14
2016-09-27T05:54:28.003Z,13.12
2016-09-27T05:54:53.684Z,12.87
2016-09-27T05:55:19.235Z,12.75
2016-09-27T05:55:44.790Z,12.56
2016-09-27T05:56:10.358Z,12.45
2016-09-27T05:56:35.900Z,12.29
2016-09-27T05:57:01.445Z,12.11
2016-09-27T05:57:27.051Z,12.08
2016-09-27T05:57:52.599Z,12.01
2016-09-27T05:58:18.153Z,11.89
2016-09-27T05:58:43.732Z,11.72
2016-09-27T05:59:09.277Z,11.57
2016-09-27T05:59:34.822Z,11.56
2016-09-27T06:00:00.390Z,11.44
2016-09-27T06:01:04.736Z,11.11
2016-09-27T06:01:31.139Z,10.96
2016-09-27T06:02:30.978Z,10.81
2016-09-27T06:02:56.443Z,10.74
2016-09-27T06:04:34.081Z,10.43
2016-09-27T06:05:29.248Z,10.28
2016-09-27T06:05:55.062Z,10.14
2016-09-27T06:06:20.616Z,10.03
2016-09-27T06:06:46.163Z,10.03
2016-09-27T06:07:11.736Z,9.85
2016-09-27T06:07:37.290Z,9.86
2016-09-27T06:08:02.843Z,9.76
2016-09-27T06:08:28.413Z,9.73
2016-09-27T06:08:53.998Z,9.66
2016-09-27T06:09:19.536Z,9.56
2016-09-27T06:09:45.092Z,9.52
2016-09-27T06:10:10.636Z,9.43
2016-09-27T06:10:36.224Z,9.45
2016-09-27T06:11:01.769Z,9.5
2016-09-27T06:11:27.332Z,9.35
2016-09-27T06:11:53.063Z,9.35
2016-09-27T06:12:18.612Z,9.3
2016-09-27T06:12:44.226Z,9.28
2016-09-27T06:13:09.786Z,9.23
2016-09-27T06:13:35.388Z,9.12
2016-09-27T06:14:00.966Z,9.12
2016-09-27T06:14:26.619Z,9.02
2016-09-27T06:14:52.334Z,8.94
2016-09-27T06:15:17.886Z,9.01
2016-09-27T06:15:43.547Z,9.05
2016-09-27T06:16:09.171Z,9.04
2016-09-27T06:16:34.717Z,8.88
2016-09-27T06:17:00.352Z,8.88
2016-09-27T06:17:25.902Z,8.83
2016-09-27T06:17:51.415Z,8.88
2016-09-27T06:18:16.972Z,8.86
2016-09-27T06:18:43.302Z,8.88
2016-09-27T06:19:08.864Z,8.79
2016-09-27T06:19:34.464Z,8.81
2016-09-27T06:20:00.008Z,8.78
2016-09-27T06:20:25.735Z,8.79
2016-09-27T06:20:51.379Z,8.76
2016-09-27T06:21:16.953Z,8.72
2016-09-27T06:21:42.494Z,8.76
2016-09-27T06:22:08.041Z,8.65
2016-09-27T06:22:33.642Z,8.73
2016-09-27T06:22:59.241Z,8.65
2016-09-27T06:23:24.794Z,8.65
2016-09-27T06:23:50.376Z,8.63
2016-09-27T06:24:49.153Z,8.65
2016-09-27T06:25:38.476Z,8.6
2016-09-27T06:26:04.530Z,8.6
2016-09-27T06:28:19.223Z,8.5
2016-09-27T06:28:45.684Z,8.53
2016-09-27T06:29:11.234Z,8.5
2016-09-27T06:29:36.793Z,8.48
2016-09-27T06:30:02.341Z,8.53
2016-09-27T06:30:27.932Z,8.54
2016-09-27T06:30:53.498Z,8.47
2016-09-27T06:31:19.074Z,8.44
2016-09-27T06:31:44.647Z,8.48
2016-09-27T06:32:10.302Z,8.39
2016-09-27T06:32:36.684Z,8.44
2016-09-27T06:33:02.239Z,8.58
2016-09-27T06:33:27.805Z,8.53
2016-09-27T06:33:53.383Z,8.48
2016-09-27T06:34:19.059Z,8.47
2016-09-27T06:34:44.619Z,8.57
2016-09-27T06:35:10.159Z,8.5
2016-09-27T06:35:35.697Z,8.48
2016-09-27T06:36:01.292Z,8.57
2016-09-27T06:36:26.859Z,8.58
2016-09-27T06:36:52.385Z,8.65
2016-09-27T06:37:17.997Z,8.62
2016-09-27T06:37:43.563Z,8.65
2016-09-27T06:38:09.129Z,8.68
2016-09-27T06:38:34.698Z,8.63
2016-09-27T06:39:00.282Z,8.65
2016-09-27T06:39:25.859Z,8.65
2016-09-27T06:39:51.643Z,8.63
2016-09-27T06:40:17.223Z,8.75
2016-09-27T06:40:42.773Z,8.79
2016-09-27T06:41:08.374Z,8.73
2016-09-27T06:41:33.937Z,8.72
2016-09-27T06:41:59.647Z,8.78
2016-09-27T06:42:25.234Z,8.84
2016-09-27T06:42:50.776Z,8.84
2016-09-27T06:43:16.430Z,8.79
2016-09-27T06:43:41.994Z,8.91
2016-09-27T06:44:07.569Z,8.81
2016-09-27T06:44:33.119Z,8.84
2016-09-27T06:44:58.735Z,8.93
2016-09-27T06:45:24.284Z,8.96
2016-09-27T06:45:49.850Z,9.02
2016-09-27T06:46:15.392Z,9.06
2016-09-27T06:46:40.950Z,9.05
2016-09-27T06:47:06.619Z,9.05
2016-09-27T06:47:32.193Z,9.04
2016-09-27T06:47:57.823Z,9.1
2016-09-27T06:48:23.509Z,9.04
2016-09-27T06:48:49.044Z,9.01
2016-09-27T06:49:14.599Z,9.04
2016-09-27T06:49:40.163Z,9.15
2016-09-27T06:50:05.801Z,9.13
2016-09-27T06:50:31.355Z,9.12
2016-09-27T06:50:56.925Z,9.15
2016-09-27T06:51:22.571Z,9.2
2016-09-27T06:51:48.113Z,9.18
2016-09-27T06:52:13.684Z,9.21
2016-09-27T06:52:39.233Z,9.27
2016-09-27T06:53:04.905Z,9.27
2016-09-27T06:53:31.264Z,9.28
2016-09-27T06:53:56.839Z,9.35
2016-09-27T06:54:22.424Z,9.38
2016-09-27T06:54:47.997Z,9.42
2016-09-27T06:55:13.556Z,9.48
2016-09-27T06:55:39.098Z,9.5
2016-09-27T06:56:04.771Z,9.46
2016-09-27T06:56:30.327Z,9.49
2016-09-27T06:56:55.876Z,9.57
2016-09-27T06:57:21.441Z,9.58
2016-09-27T06:57:46.992Z,9.63
2016-09-27T06:58:12.542Z,9.68
2016-09-27T06:58:38.223Z,9.73
2016-09-27T06:59:03.882Z,9.73
2016-09-27T06:59:29.455Z,9.85
2016-09-27T06:59:55.110Z,9.82
2016-09-27T07:00:20.639Z,9.88
2016-09-27T07:00:46.218Z,9.89
2016-09-27T07:01:11.807Z,9.91
2016-09-27T07:01:37.361Z,9.97
2016-09-27T07:02:02.931Z,10.07
2016-09-27T07:02:29.073Z,10.01
2016-09-27T07:02:54.651Z,10.06
2016-09-27T07:03:20.213Z,10.07
2016-09-27T07:03:45.778Z,10.14
2016-09-27T07:04:11.321Z,10.15
2016-09-27T07:04:36.986Z,10.26
2016-09-27T07:05:04.147Z,10.21
2016-09-27T07:05:53.044Z,10.32
2016-09-27T07:06:18.466Z,10.3
2016-09-27T07:06:44.072Z,10.3
2016-09-27T07:07:52.337Z,10.46
2016-09-27T07:08:17.909Z,10.4
2016-09-27T07:08:43.479Z,10.4
2016-09-27T07:09:09.092Z,10.51
2016-09-27T07:09:37.255Z,10.52
2016-09-27T07:10:02.530Z,10.47
2016-09-27T07:10:28.066Z,10.52
2016-09-27T07:10:53.681Z,10.55
2016-09-27T07:11:19.310Z,10.55
2016-09-27T07:11:44.869Z,10.58
2016-09-27T07:12:10.477Z,10.6
2016-09-27T07:12:36.127Z,10.59
2016-09-27T07:13:01.668Z,10.66
2016-09-27T07:13:27.210Z,10.68
2016-09-27T07:13:52.746Z,10.7
2016-09-27T07:14:55.979Z,10.74
2016-09-27T07:15:21.711Z,10.74
2016-09-27T07:16:29.001Z,10.86
2016-09-27T07:16:54.302Z,10.96
2016-09-27T07:17:19.814Z,11.01
2016-09-27T07:17:45.378Z,11.21
2016-09-27T07:18:10.940Z,11.28
2016-09-27T07:18:36.495Z,11.41
2016-09-27T07:19:03.442Z,11.5
2016-09-27T07:19:31.001Z,11.41
2016-09-27T07:19:56.564Z,11.47
2016-09-27T07:20:22.106Z,11.47
2016-09-27T07:20:47.655Z,11.47
2016-09-27T07:21:13.295Z,11.46
2016-09-27T07:21:38.835Z,11.57
2016-09-27T07:22:04.383Z,11.57
2016-09-27T07:22:29.952Z,11.56
2016-09-27T07:22:55.509Z,11.65
2016-09-27T07:23:21.074Z,11.59
2016-09-27T07:23:46.621Z,11.65
2016-09-27T07:24:12.205Z,11.64
2016-09-27T07:25:13.200Z,11.67
2016-09-27T07:25:44.787Z,11.62
2016-09-27T07:26:16.435Z,11.71
2016-09-27T07:27:29.988Z,11.77
2016-09-27T07:28:01.843Z,11.75
2016-09-27T07:28:28.846Z,11.74
2016-09-27T07:28:54.711Z,11.78
2016-09-27T07:29:53.335Z,11.89
2016-09-27T07:30:24.133Z,11.83
2016-09-27T07:31:18.418Z,11.83
2016-09-27T07:32:12.927Z,11.77
2016-09-27T07:33:07.216Z,11.77
2016-09-27T07:34:04.117Z,11.74
2016-09-27T07:34:30.467Z,11.75
2016-09-27T07:34:56.023Z,11.77
2016-09-27T07:35:21.592Z,11.7
2016-09-27T07:36:16.768Z,11.75
2016-09-27T07:37:06.028Z,11.71
2016-09-27T07:37:55.818Z,11.68
2016-09-27T07:38:25.994Z,11.74
2016-09-27T07:39:15.563Z,11.77
2016-09-27T07:39:40.965Z,11.77
2016-09-27T07:40:42.519Z,11.85
2016-09-27T07:41:09.956Z,11.96
2016-09-27T07:41:35.566Z,11.94
2016-09-27T07:42:49.357Z,12.09
2016-09-27T07:43:44.647Z,12.08
2016-09-27T07:44:16.393Z,12.13
2016-09-27T07:44:48.134Z,12.13
2016-09-27T07:45:14.506Z,12.15
2016-09-27T07:45:40.074Z,12.15
2016-09-27T07:46:05.637Z,12.2
2016-09-27T07:46:31.317Z,12.16
2016-09-27T07:47:33.666Z,12.27
2016-09-27T07:48:04.972Z,12.37
2016-09-27T07:48:36.629Z,12.45
2016-09-27T07:49:08.418Z,12.48
2016-09-27T07:50:10.321Z,12.51
2016-09-27T07:50:41.911Z,12.59
2016-09-27T07:51:44.182Z,12.57
2016-09-27T07:53:12.284Z,12.62
2016-09-27T07:54:01.366Z,12.66
2016-09-27T07:54:59.930Z,12.57
2016-09-27T07:55:26.847Z,12.69
2016-09-27T07:55:56.700Z,12.7
2016-09-27T07:57:04.306Z,12.69
2016-09-27T07:57:53.439Z,12.85
2016-09-27T07:58:43.340Z,12.93
2016-09-27T07:59:14.978Z,12.82
2016-09-27T08:00:17.096Z,12.89
2016-09-27T08:01:19.118Z,12.96
2016-09-27T08:02:14.770Z,13.15
2016-09-27T08:03:17.116Z,13.14
2016-09-27T08:04:12.765Z,13.14
2016-09-27T08:05:27.207Z,13.29
2016-09-27T08:06:23.152Z,13.33
2016-09-27T08:07:12.000Z,13.36
2016-09-27T08:07:38.186Z,13.33
2016-09-27T08:08:07.824Z,13.33
2016-09-27T08:09:10.058Z,13.46
2016-09-27T08:09:59.879Z,13.47
2016-09-27T08:10:32.172Z,13.49
2016-09-27T08:11:03.962Z,13.61
2016-09-27T08:12:01.888Z,13.61
2016-09-27T08:13:03.800Z,13.74
2016-09-27T08:14:12.133Z,13.8
2016-09-27T08:15:07.196Z,13.88
2016-09-27T08:15:56.963Z,13.98
2016-09-27T08:16:46.859Z,14.07
2016-09-27T08:17:54.986Z,14.14
2016-09-27T08:18:44.504Z,14.24
2016-09-27T08:19:34.491Z,14.29
2016-09-27T08:20:07.946Z,14.38
2016-09-27T08:21:04.227Z,14.37
2016-09-27T08:21:37.649Z,14.44
2016-09-27T08:22:11.563Z,14.39
2016-09-27T08:22:44.766Z,14.5
2016-09-27T08:23:18.702Z,14.47
2016-09-27T08:23:52.244Z,14.5
2016-09-27T08:24:25.804Z,14.52
2016-09-27T08:24:59.559Z,14.6
2016-09-27T08:25:32.860Z,14.52
2016-09-27T08:26:49.280Z,14.53
2016-09-27T08:27:22.856Z,14.57
2016-09-27T08:27:56.644Z,14.57
2016-09-27T08:28:30.266Z,14.56
2016-09-27T08:29:03.714Z,14.6
2016-09-27T08:30:19.828Z,14.61
2016-09-27T08:30:53.512Z,14.61
2016-09-27T08:31:26.906Z,14.61
2016-09-27T08:32:00.133Z,14.64
2016-09-27T08:32:33.551Z,14.72
2016-09-27T08:33:07.116Z,14.71
2016-09-27T08:33:40.789Z,14.84
2016-09-27T08:34:13.596Z,14.84
2016-09-27T08:34:47.370Z,14.86
2016-09-27T08:35:20.594Z,14.88
2016-09-27T08:36:36.703Z,14.93
2016-09-27T08:37:52.988Z,14.98
2016-09-27T08:38:25.925Z,14.98
2016-09-27T08:38:59.220Z,15.01
2016-09-27T08:39:32.236Z,15.05
2016-09-27T08:40:05.034Z,15.15
2016-09-27T08:40:38.431Z,15.2
2016-09-27T08:41:11.750Z,15.13
2016-09-27T08:41:44.778Z,15.15
2016-09-27T08:42:18.082Z,15.09
2016-09-27T08:42:51.350Z,15.21
2016-09-27T08:43:24.528Z,15.24
2016-09-27T08:43:57.374Z,15.28
2016-09-27T08:44:31.077Z,15.24
2016-09-27T08:45:47.291Z,15.38
2016-09-27T08:46:20.785Z,15.39
2016-09-27T08:46:53.931Z,15.39
2016-09-27T08:47:26.926Z,15.39
2016-09-27T08:48:00.454Z,15.39
2016-09-27T08:48:33.798Z,15.35
2016-09-27T08:49:07.301Z,15.49
2016-09-27T08:49:40.660Z,15.43
2016-09-27T08:50:13.856Z,15.52
2016-09-27T08:51:10.077Z,15.56
2016-09-27T08:52:12.812Z,15.59
2016-09-27T08:53:28.889Z,15.6
2016-09-27T08:54:02.335Z,15.6
2016-09-27T08:54:35.670Z,15.61
2016-09-27T08:55:38.623Z,15.64
2016-09-27T08:56:50.156Z,15.74
2016-09-27T08:57:59.641Z,15.79
2016-09-27T08:58:55.831Z,15.85
2016-09-27T08:59:29.295Z,15.85
2016-09-27T09:00:02.896Z,15.92
2016-09-27T09:00:36.457Z,15.84
2016-09-27T09:01:09.976Z,15.94
2016-09-27T09:02:26.216Z,15.92
2016-09-27T09:02:59.524Z,15.93
2016-09-27T09:03:32.866Z,15.89
2016-09-27T09:04:35.451Z,15.99
2016-09-27T09:05:45.580Z,16.04
2016-09-27T09:06:18.778Z,16.04
2016-09-27T09:07:15.790Z,16.07
2016-09-27T09:07:49.200Z,16.11
2016-09-27T09:08:45.283Z,16.18
2016-09-27T09:10:01.129Z,16.14
2016-09-27T09:10:33.250Z,16.18
2016-09-27T09:11:23.357Z,16.23
2016-09-27T09:11:56.123Z,16.31
2016-09-27T09:12:45.992Z,16.25
2016-09-27T09:13:43.239Z,16.3
2016-09-27T09:14:15.173Z,16.35
2016-09-27T09:14:45.311Z,16.44
2016-09-27T09:15:17.387Z,16.37
2016-09-27T09:15:50.608Z,16.45
2016-09-27T09:16:54.920Z,16.35
2016-09-27T09:17:28.669Z,16.49
2016-09-27T09:18:02.044Z,16.49
2016-09-27T09:19:17.233Z,16.34
2016-09-27T09:20:07.198Z,16.53
2016-09-27T09:20:56.437Z,16.55
2016-09-27T09:21:46.488Z,16.58
2016-09-27T09:22:19.190Z,16.6
2016-09-27T09:22:51.508Z,16.6
2016-09-27T09:25:08.046Z,16.83
2016-09-27T09:26:10.834Z,17.07
2016-09-27T09:26:44.118Z,17.33
2016-09-27T09:27:16.471Z,17.59
2016-09-27T09:28:06.832Z,18.34
2016-09-27T09:29:19.143Z,19.54
2016-09-27T09:30:15.590Z,20.49
2016-09-27T09:31:36.938Z,21.78
2016-09-27T09:32:09.738Z,22.27
2016-09-27T09:32:42.112Z,22.57
2016-09-27T09:33:15.049Z,23.05
2016-09-27T09:33:47.780Z,23.43
2016-09-27T09:35:02.950Z,24.44
2016-09-27T09:36:05.122Z,24.92
2016-09-27T09:37:00.219Z,25.34
2016-09-27T09:37:50.343Z,25.72
2016-09-27T09:38:44.939Z,26.17
2016-09-27T09:39:34.883Z,26.64
2016-09-27T09:40:36.759Z,27.1
2016-09-27T09:41:08.439Z,27.33
2016-09-27T09:42:03.912Z,27.36
2016-09-27T09:42:58.631Z,27.73
2016-09-27T09:43:47.871Z,27.91
2016-09-27T09:44:37.612Z,28.35
2016-09-27T09:45:45.448Z,28.54
2016-09-27T09:46:16.790Z,28.06
2016-09-27T09:47:18.152Z,28.38
2016-09-27T09:48:07.140Z,28.62
2016-09-27T09:48:56.243Z,28.84
2016-09-27T09:49:22.049Z,28.93
2016-09-27T09:49:47.699Z,29.06
2016-09-27T09:50:14.589Z,29.18
2016-09-27T09:51:15.454Z,29.78
2016-09-27T09:51:44.691Z,29.87
2016-09-27T09:52:11.328Z,30.07
2016-09-27T09:52:36.889Z,30.31
2016-09-27T09:53:04.134Z,30.45
2016-09-27T09:53:32.228Z,30.72
2016-09-27T09:54:39.199Z,31.11
2016-09-27T09:55:52.413Z,31.46
2016-09-27T09:56:42.181Z,31.77